Latest Weather Observations for Minlaton Airport

IDS60801

Issued at 8:05 am CST Thursday 28 August 2014 (issued every 30 minutes, with the page automatically refreshed every 10 minutes)

About weather observations | Map of weather stations | Latest weather observations for SA | Other Formats
Station Details ID: 022031 Name: MINLATON AERO Lat: -34.75 Lon: 137.53 Height: 32.0 m
Data from the previous 72 hours. | See also: Recent months at Minlaton Airport
Date/Time
CST
Temp
°C
App
Temp
°C
Dew
Point
Rel
Hum
%
Delta-T
°C
Wind Press
QNH
hPa
Press
MSL
hPa
Rain
since 9 am
mm
Dir
 
Spd
km/h
Gust
km/h
Spd
kts
Gust
kts
28/08:00am 12.5 10.4 8.2 75 2.1 NNE 9 13 5 7 1027.9 1028.0 0.0
28/07:30am 9.9 7.0 6.6 80 1.5 NNW 11 13 6 7 1027.9 1028.0 0.0
28/07:00am 9.0 3.9 5.9 81 1.4 ENE 22 26 12 14 1027.6 1027.7 0.0
28/06:30am 8.5 3.7 5.8 83 1.2 ENE 20 20 11 11 1027.4 1027.5 0.0
28/06:00am 8.5 3.8 6.0 84 1.1 ENE 20 22 11 12 1027.2 1027.3 0.0
28/05:30am 8.2 3.4 5.8 85 1.1 ENE 20 20 11 11 1026.9 1027.0 0.0
28/05:00am 8.4 3.2 5.7 83 1.2 ENE 22 24 12 13 1026.7 1026.8 0.0
28/04:30am 8.4 2.9 5.9 84 1.1 E 24 24 13 13 1026.7 1026.8 0.0
28/04:00am 8.1 2.9 5.6 84 1.1 E 22 24 12 13 1026.7 1026.8 0.0
28/03:30am 7.8 2.6 5.3 84 1.1 E 22 24 12 13 1026.7 1026.8 0.0
28/03:00am 8.2 3.3 5.3 82 1.3 E 20 24 11 13 1026.6 1026.7 0.0
28/02:30am 8.5 3.3 5.3 80 1.4 E 22 24 12 13 1026.8 1026.9 0.0
28/02:00am 8.5 3.2 5.1 79 1.5 E 22 24 12 13 1027.0 1027.1 0.0
28/01:30am 8.2 2.9 5.1 81 1.4 E 22 24 12 13 1027.1 1027.2 0.0
28/01:00am 8.4 3.2 5.3 81 1.4 E 22 24 12 13 1027.3 1027.4 0.0
28/12:30am 8.4 3.3 5.9 84 1.1 E 22 24 12 13 1027.5 1027.6 0.0
28/12:00am 8.6 3.8 5.7 82 1.3 E 20 22 11 12 1027.6 1027.7 0.0
 
Date/Time
CST
Temp
°C
App
Temp
°C
Dew
Point
Rel
Hum
%
Delta-T
°C
Wind Press
QNH
hPa
Press
MSL
hPa
Rain
since 9 am
mm
Dir
 
Spd
km/h
Gust
km/h
Spd
kts
Gust
kts
27/11:30pm 8.9 4.2 6.2 83 1.2 E 20 24 11 13 1027.9 1028.0 0.0
27/11:00pm 8.9 4.3 6.7 86 1.0 E 20 22 11 12 1027.9 1028.0 0.0
27/10:30pm 8.8 4.3 6.8 87 0.9 E 20 22 11 12 1027.7 1027.8 0.0
27/10:00pm 9.3 4.7 6.7 84 1.2 E 20 22 11 12 1027.6 1027.7 0.0
27/09:30pm 9.5 4.5 6.4 81 1.4 E 22 24 12 13 1027.5 1027.6 0.0
27/09:00pm 9.2 4.9 7.0 86 1.0 E 19 20 10 11 1027.5 1027.6 0.0
27/08:30pm 9.5 5.6 7.3 86 1.0 E 17 19 9 10 1027.4 1027.5 0.0
27/08:00pm 10.1 6.1 8.4 89 0.8 E 19 19 10 10 1027.1 1027.2 0.0
27/07:30pm 9.6 5.9 7.9 89 0.8 E 17 17 9 9 1026.7 1026.8 0.0
27/07:00pm 8.8 5.6 6.8 87 0.9 ESE 13 15 7 8 1026.4 1026.5 0.0
27/06:30pm 10.3 7.5 7.0 80 1.6 SE 11 11 6 6 1026.2 1026.3 0.0
27/06:00pm 12.4 10.2 7.9 74 2.2 SSE 9 13 5 7 1026.1 1026.2 0.0
27/05:30pm 15.4 14.2 9.7 69 2.9 S 6 7 3 4 1026.0 1026.1 0.0
27/05:00pm 17.4 16.3 9.8 61 4.0 WSW 6 7 3 4 1025.7 1025.8 0.0
27/04:30pm 17.3 14.5 8.4 56 4.5 SW 13 15 7 8 1025.6 1025.7 0.0
27/04:00pm 19.2 17.0 7.9 48 5.8 W 9 11 5 6 1025.3 1025.4 0.0
27/03:30pm 19.6 17.7 8.9 50 5.6 NW 9 11 5 6 1025.3 1025.4 0.0
27/03:00pm 19.6 17.1 8.0 47 6.0 NW 11 15 6 8 1025.5 1025.6 0.0
27/02:30pm 19.3 16.8 8.3 49 5.7 NW 11 15 6 8 1025.6 1025.7 0.0
27/02:00pm 18.7 15.6 8.7 52 5.2 W 15 17 8 9 1025.7 1025.8 0.0
27/01:30pm 19.2 16.9 9.1 52 5.3 WNW 11 15 6 8 1025.7 1025.8 0.0
27/01:00pm 19.6 17.0 9.5 52 5.4 NW 13 17 7 9 1025.9 1026.0 0.0
27/12:30pm 20.0 18.5 9.3 50 5.6 NW 7 9 4 5 1026.3 1026.4 0.0
27/12:00pm 20.1 17.8 9.1 49 5.8 N 11 15 6 8 1026.5 1026.6 0.0
27/11:30am 19.2 16.9 9.1 52 5.3 N 11 15 6 8 1027.0 1027.1 0.0
27/11:00am 18.2 16.0 9.3 56 4.7 N 11 15 6 8 1027.4 1027.5 0.0
27/10:30am 17.3 15.9 10.9 66 3.4 NE 9 11 5 6 1027.6 1027.7 0.0
27/10:00am 15.7 13.3 10.0 69 3.0 NNE 13 17 7 9 1027.5 1027.6 0.0
27/09:30am 14.8 12.3 9.8 72 2.6 NNE 13 19 7 10 1027.3 1027.4 0.0
27/09:00am 13.3 11.6 9.9 80 1.7 NE 9 15 5 8 1027.1 1027.2 0.2
27/08:30am 11.2 9.4 9.5 89 0.9 NE 9 13 5 7 1026.7 1026.8 0.2
27/08:00am 9.4 7.7 8.3 93 0.5 N 7 11 4 6 1026.4 1026.5 0.2
27/07:30am 9.0 4.8 8.1 94 0.4 E 20 22 11 12 1026.0 1026.1 0.2
27/07:00am 7.2 2.6 6.5 95 0.3 E 20 24 11 13 1025.6 1025.7 0.2
27/06:30am 7.0 2.4 6.3 95 0.3 E 20 22 11 12 1025.3 1025.4 0.2
27/06:00am 7.0 2.0 6.3 95 0.3 E 22 26 12 14 1024.9 1025.0 0.2
27/05:30am 7.2 2.6 6.3 94 0.4 E 20 20 11 11 1024.6 1024.7 0.0
27/05:00am 7.7 2.4 7.0 95 0.3 E 24 28 13 15 1024.2 1024.3 0.0
27/04:30am 7.3 1.6 6.6 95 0.3 E 26 30 14 16 1024.2 1024.3 0.0
27/04:00am 7.5 3.0 6.8 95 0.3 E 20 24 11 13 1024.5 1024.6 0.0
27/03:30am 8.2 3.4 7.4 95 0.4 E 22 26 12 14 1024.5 1024.6 0.0
27/03:00am 8.0 3.6 7.2 95 0.4 E 20 22 11 12 1024.7 1024.8 0.0
27/02:30am 7.2 2.6 6.5 95 0.3 E 20 24 11 13 1024.8 1024.9 0.0
27/02:00am 6.9 1.8 6.2 95 0.3 E 22 24 12 13 1024.6 1024.7 0.0
27/01:30am 7.3 2.3 6.6 95 0.3 E 22 26 12 14 1024.4 1024.5 0.0
27/01:00am 7.0 2.4 6.3 95 0.3 E 20 24 11 13 1024.6 1024.7 0.0
27/12:30am 7.8 2.9 7.1 95 0.3 E 22 26 12 14 1024.4 1024.5 0.0
27/12:00am 7.5 3.0 6.9 96 0.3 E 20 24 11 13 1024.8 1024.9 0.0
 
Date/Time
CST
Temp
°C
App
Temp
°C
Dew
Point
Rel
Hum
%
Delta-T
°C
Wind Press
QNH
hPa
Press
MSL
hPa
Rain
since 9 am
mm
Dir
 
Spd
km/h
Gust
km/h
Spd
kts
Gust
kts
26/11:30pm 7.6 3.1 7.0 96 0.3 E 20 24 11 13 1024.9 1025.0 0.0
26/11:00pm 8.0 3.2 7.4 96 0.3 E 22 26 12 14 1024.9 1025.0 0.0
26/10:30pm 7.5 3.2 6.9 96 0.3 E 19 20 10 11 1025.2 1025.3 0.0
26/10:00pm 7.7 3.4 7.0 95 0.3 E 19 20 10 11 1025.3 1025.4 0.0
26/09:30pm 7.7 3.4 7.0 95 0.3 E 19 20 10 11 1025.1 1025.2 0.0
26/09:00pm 7.6 3.3 6.9 95 0.3 E 19 20 10 11 1025.3 1025.4 0.0
26/08:30pm 7.8 3.9 7.1 95 0.3 E 17 20 9 11 1025.1 1025.2 0.0
26/08:00pm 7.1 3.0 6.2 94 0.4 E 17 19 9 10 1025.0 1025.1 0.0
26/07:30pm 6.4 2.5 5.2 92 0.5 E 15 17 8 9 1024.8 1024.9 0.0
26/07:00pm 6.8 3.3 5.3 90 0.7 E 13 13 7 7 1024.6 1024.7 0.0
26/06:30pm 7.9 5.6 5.7 86 1.0 ESE 7 9 4 5 1024.5 1024.6 0.0
26/06:00pm 10.0 8.1 6.9 81 1.5 SSW 6 7 3 4 1024.3 1024.4 0.0
26/05:30pm 13.5 12.3 9.6 77 2.0 SW 6 7 3 4 1024.2 1024.3 0.0
26/05:00pm 14.7 13.0 9.7 72 2.6 WSW 9 13 5 7 1024.1 1024.2 0.0
26/04:30pm 15.5 13.7 9.6 68 3.0 WSW 9 13 5 7 1023.9 1024.0 0.0
26/04:00pm 15.9 14.1 9.6 66 3.3 W 9 13 5 7 1023.9 1024.0 0.0
26/03:30pm 15.8 13.2 9.5 66 3.3 WSW 13 17 7 9 1024.0 1024.1 0.0
26/03:00pm 16.4 14.6 9.6 64 3.5 W 9 13 5 7 1024.2 1024.3 0.0
26/02:30pm 16.3 13.4 9.7 65 3.4 W 15 20 8 11 1024.5 1024.6 0.0
26/02:00pm 16.5 13.6 9.7 64 3.6 W 15 20 8 11 1024.6 1024.7 0.0
26/01:30pm 16.9 14.4 9.6 62 3.8 W 13 20 7 11 1024.6 1024.7 0.0
26/01:00pm 17.8 14.4 7.5 51 5.2 NE 15 24 8 13 1024.8 1024.9 0.0
26/12:30pm 17.5 14.7 8.4 55 4.6 NNE 13 20 7 11 1025.5 1025.6 0.0
26/12:00pm 16.7 13.1 8.4 58 4.2 NNE 17 24 9 13 1026.0 1026.1 0.0
26/11:30am 16.0 11.9 8.7 62 3.7 NNE 20 26 11 14 1026.3 1026.4 0.0
26/11:00am 15.2 10.5 9.1 67 3.1 ENE 24 30 13 16 1026.6 1026.7 0.0
26/10:30am 14.5 9.0 9.3 71 2.6 ENE 28 33 15 18 1026.9 1027.0 0.0
26/10:00am 13.6 8.5 9.3 75 2.2 ENE 26 33 14 18 1027.1 1027.2 0.0
26/09:30am 12.7 8.5 9.7 82 1.5 ENE 22 28 12 15 1027.1 1027.2 0.0
26/09:00am 11.5 6.9 9.6 88 1.0 ENE 24 32 13 17 1027.2 1027.3 0.4
26/08:30am 9.6 5.5 8.5 93 0.5 E 20 24 11 13 1027.4 1027.5 0.4
26/08:00am 7.9 3.6 7.1 95 0.4 E 19 24 10 13 1027.3 1027.4 0.4
26/07:30am 6.0 1.2 5.6 97 0.2 E 20 24 11 13 1027.0 1027.1 0.4
26/07:00am 4.8 -0.2 4.4 97 0.2 E 20 26 11 14 1026.8 1026.9 0.4
26/06:30am 4.8 -0.6 4.4 97 0.2 E 22 26 12 14 1026.5 1026.6 0.2
26/06:00am 4.9 -0.9 4.5 97 0.2 E 24 24 13 13 1026.2 1026.3 0.2
26/05:30am 4.9 -0.2 4.3 96 0.3 E 20 22 11 12 1026.1 1026.2 0.2
26/05:00am 5.4 0.5 5.0 97 0.2 E 20 20 11 11 1026.0 1026.1 0.2
26/04:30am 5.1 0.3 4.5 96 0.3 ENE 19 20 10 11 1026.1 1026.2 0.2
26/04:00am 5.5 0.6 4.9 96 0.3 ENE 20 20 11 11 1026.2 1026.3 0.2
26/03:30am 5.4 1.8 4.8 96 0.3 E 13 17 7 9 1026.4 1026.5 0.2
26/03:00am 4.4 0.9 3.7 95 0.3 ESE 11 13 6 7 1026.7 1026.8 0.2
26/02:30am 5.0 2.0 4.1 94 0.4 E 9 15 5 8 1026.9 1027.0 0.2
26/02:00am 6.4 2.2 5.7 95 0.3 E 17 22 9 12 1027.2 1027.3 0.2
26/01:30am 6.4 1.6 5.7 95 0.3 E 20 24 11 13 1027.2 1027.3 0.2
26/01:00am 6.2 1.0 5.5 95 0.3 E 22 26 12 14 1027.3 1027.4 0.2
26/12:30am 6.6 2.1 5.9 95 0.3 E 19 22 10 12 1027.4 1027.5 0.2
26/12:00am 5.9 1.6 5.2 95 0.3 ESE 17 20 9 11 1028.0 1028.1 0.2
 
Date/Time
CST
Temp
°C
App
Temp
°C
Dew
Point
Rel
Hum
%
Delta-T
°C
Wind Press
QNH
hPa
Press
MSL
hPa
Rain
since 9 am
mm
Dir
 
Spd
km/h
Gust
km/h
Spd
kts
Gust
kts
25/11:30pm 5.0 0.9 4.3 95 0.3 ESE 15 17 8 9 1028.2 1028.3 0.2
25/11:00pm 5.1 1.4 4.2 94 0.4 ESE 13 13 7 7 1028.4 1028.4 0.2
25/10:30pm 6.2 2.3 5.2 93 0.4 ESE 15 17 8 9 1028.7 1028.7 0.2
25/10:00pm 7.4 2.9 6.3 93 0.5 ESE 19 20 10 11 1028.7 1028.7 0.2
25/09:30pm 8.1 3.8 6.9 92 0.6 ESE 19 22 10 12 1028.9 1028.9 0.2
25/09:00pm 8.6 4.4 7.4 92 0.6 SE 19 22 10 12 1028.9 1028.9 0.2
25/08:30pm 8.5 4.3 7.3 92 0.6 SE 19 22 10 12 1029.0 1029.0 0.2
25/08:00pm 8.4 4.1 7.0 91 0.7 SE 19 20 10 11 1029.0 1029.0 0.2
25/07:30pm 8.4 4.1 7.0 91 0.6 SE 19 22 10 12 1028.9 1028.9 0.2
25/07:00pm 7.8 3.7 6.3 90 0.7 SSE 17 20 9 11 1028.8 1028.8 0.2
25/06:30pm 8.5 4.5 6.6 88 0.9 ESE 17 19 9 10 1028.4 1028.4 0.2
25/06:00pm 10.1 6.7 7.7 85 1.1 SE 15 17 8 9 1028.2 1028.3 0.2
25/05:30pm 12.4 9.3 8.7 78 1.8 SE 15 17 8 9 1028.0 1028.1 0.2
25/05:00pm 15.0 12.9 8.3 64 3.4 SSE 9 11 5 6 1027.7 1027.8 0.2
25/04:30pm 15.8 14.0 8.1 60 3.9 SE 7 11 4 6 1027.7 1027.8 0.2
25/04:00pm 16.0 14.1 7.7 58 4.2 ESE 7 11 4 6 1027.7 1027.8 0.2
25/03:30pm 16.2 14.5 7.7 57 4.2 SE 6 11 3 6 1027.8 1027.9 0.2
25/03:00pm 16.5 14.7 8.0 57 4.3 ESE 7 11 4 6 1028.0 1028.1 0.2
25/02:30pm 16.4 14.1 7.3 55 4.5 E 9 15 5 8 1028.2 1028.3 0.2
25/02:00pm 16.5 13.8 7.2 54 4.6 ENE 11 19 6 10 1028.5 1028.5 0.2
25/01:30pm 16.2 13.5 7.4 56 4.4 ENE 11 20 6 11 1029.0 1029.0 0.2
25/01:00pm 15.8 12.2 8.3 61 3.8 E 17 24 9 13 1029.4 1029.4 0.2
25/12:30pm 15.5 11.7 9.0 65 3.3 E 19 24 10 13 1029.8 1029.8 0.0
25/12:00pm 14.9 10.6 7.9 63 3.5 ENE 20 28 11 15 1030.3 1030.3 0.0
25/11:30am 14.8 10.7 8.5 66 3.2 E 20 30 11 16 1030.7 1030.7 0.0
25/11:00am 14.3 10.3 8.9 70 2.7 E 20 28 11 15 1031.2 1031.2 0.0
25/10:30am 13.7 9.7 9.0 73 2.4 ENE 20 28 11 15 1031.3 1031.3 0.0
25/10:00am 13.0 9.2 8.9 76 2.1 E 19 24 10 13 1031.4 1031.4 0.0
25/09:30am 11.8 7.4 8.8 82 1.5 E 22 30 12 16 1031.3 1031.3 0.0
25/09:00am 10.8 6.8 9.1 89 0.8 E 20 28 11 15 1031.2 1031.2 0.0
25/08:30am 9.0 5.3 8.1 94 0.4 E 17 22 9 12 1031.5 1031.5 0.0

Other Formats:

Comma delimited format used in spreadsheet applications
http://www.bom.gov.au/fwo/IDS60801/IDS60801.95659.axf

JavaScript Object Notation format (JSON) in row-major order
http://www.bom.gov.au/fwo/IDS60801/IDS60801.95659.json